createdAt,value
2022-11-20T00:01:26.502Z,26.17
2022-11-20T00:03:53.908Z,29.17
2022-11-20T00:06:20.742Z,24.35
2022-11-20T00:08:47.448Z,26.67
2022-11-20T00:11:18.732Z,27.35
2022-11-20T00:13:45.837Z,24.23
2022-11-20T00:16:13.720Z,26.10
2022-11-20T00:18:40.307Z,26.38
2022-11-20T00:21:08.998Z,30.70
2022-11-20T00:23:35.569Z,25.77
2022-11-20T00:26:06.788Z,24.38
2022-11-20T00:28:33.652Z,25.40
2022-11-20T00:31:03.792Z,25.42
2022-11-20T00:33:30.968Z,25.27
2022-11-20T00:36:07.626Z,23.13
2022-11-20T00:38:34.295Z,26.48
2022-11-20T00:41:02.290Z,22.38
2022-11-20T00:43:28.973Z,24.38
2022-11-20T00:45:59.263Z,25.95
2022-11-20T00:48:25.980Z,33.40
2022-11-20T00:50:52.635Z,23.52
2022-11-20T00:53:19.218Z,22.42
2022-11-20T00:55:57.102Z,22.95
2022-11-20T00:58:24.342Z,22.73
2022-11-20T01:00:51.025Z,22.50
2022-11-20T01:03:22.723Z,20.25
2022-11-20T01:05:52.308Z,22.52
2022-11-20T01:08:18.969Z,22.85
2022-11-20T01:10:45.575Z,22.80
2022-11-20T01:13:30.698Z,23.88
2022-11-20T01:16:03.662Z,22.42
2022-11-20T01:18:30.257Z,23.70
2022-11-20T01:21:00.459Z,24.65
2022-11-20T01:23:27.057Z,27.85
2022-11-20T01:25:53.676Z,27.08
2022-11-20T01:28:20.270Z,28.23
2022-11-20T01:30:46.881Z,26.13
2022-11-20T01:33:13.482Z,27.02
2022-11-20T01:35:40.084Z,26.10
2022-11-20T01:38:06.648Z,25.80
2022-11-20T01:40:33.216Z,23.55
2022-11-20T01:43:23.173Z,25.40
2022-11-20T01:46:04.293Z,23.63
2022-11-20T01:48:34.523Z,28.00
2022-11-20T01:51:01.147Z,27.23
2022-11-20T01:53:31.611Z,23.45
2022-11-20T01:55:58.377Z,26.98
2022-11-20T01:58:31.031Z,25.85
2022-11-20T02:00:57.650Z,24.02
2022-11-20T02:03:24.268Z,24.58
2022-11-20T02:05:56.851Z,26.00
2022-11-20T02:08:23.523Z,23.83
2022-11-20T02:10:50.116Z,23.80
2022-11-20T02:13:35.709Z,23.65
2022-11-20T02:16:02.771Z,24.40
2022-11-20T02:18:29.393Z,24.15
2022-11-20T02:21:02.093Z,25.10
2022-11-20T02:23:33.511Z,26.40
2022-11-20T02:26:00.597Z,27.10
2022-11-20T02:28:27.215Z,24.88
2022-11-20T02:30:53.813Z,27.05
2022-11-20T02:33:20.394Z,31.35
2022-11-20T02:35:47.367Z,29.17
2022-11-20T02:38:14.179Z,26.38
2022-11-20T02:40:40.922Z,26.95
2022-11-20T02:43:07.528Z,25.05
2022-11-20T02:45:34.179Z,26.08
2022-11-20T02:48:00.820Z,32.10
2022-11-20T02:50:27.410Z,26.52
2022-11-20T02:52:54.030Z,28.00
2022-11-20T02:55:20.623Z,28.90
2022-11-20T02:57:47.172Z,27.20
2022-11-20T03:00:14.267Z,25.75
2022-11-20T03:02:40.956Z,25.92
2022-11-20T03:05:07.745Z,27.70
2022-11-20T03:07:34.603Z,32.30
2022-11-20T03:10:01.247Z,29.02
2022-11-20T03:12:28.117Z,28.65
2022-11-20T03:14:54.701Z,28.42
2022-11-20T03:17:21.291Z,28.67
2022-11-20T03:19:47.883Z,30.60
2022-11-20T03:22:14.544Z,26.45
2022-11-20T03:24:41.170Z,31.33
2022-11-20T03:27:07.861Z,26.15
2022-11-20T03:29:35.677Z,29.98
2022-11-20T03:32:02.284Z,23.83
2022-11-20T03:34:29.182Z,26.45
2022-11-20T03:36:55.793Z,26.23
2022-11-20T03:39:22.515Z,24.05
2022-11-20T03:41:49.284Z,23.42
2022-11-20T03:44:15.927Z,26.15
2022-11-20T03:46:42.500Z,26.33
2022-11-20T03:49:09.065Z,23.08
2022-11-20T03:51:36.425Z,26.30
2022-11-20T03:54:07.675Z,28.15
2022-11-20T03:56:35.946Z,28.23
2022-11-20T03:59:06.095Z,25.52
2022-11-20T04:01:34.482Z,26.83
2022-11-20T04:04:01.109Z,23.45
2022-11-20T04:06:29.599Z,26.75
2022-11-20T04:08:56.887Z,26.00
2022-11-20T04:11:28.276Z,25.95
2022-11-20T04:13:56.352Z,28.77
2022-11-20T04:16:23.268Z,26.38
2022-11-20T04:18:57.287Z,28.58
2022-11-20T04:21:24.158Z,27.25
2022-11-20T04:23:51.369Z,26.42
2022-11-20T04:26:17.976Z,27.30
2022-11-20T04:28:44.566Z,27.48
2022-11-20T04:31:15.740Z,29.85
2022-11-20T04:33:42.323Z,29.50
2022-11-20T04:36:13.470Z,25.00
2022-11-20T04:38:40.368Z,25.35
2022-11-20T04:41:08.526Z,26.60
2022-11-20T04:43:35.244Z,30.33
2022-11-20T04:46:01.972Z,26.58
2022-11-20T04:48:29.339Z,24.17
2022-11-20T04:50:56.176Z,28.73
2022-11-20T04:53:22.889Z,25.60
2022-11-20T04:55:49.541Z,27.33
2022-11-20T04:58:16.563Z,24.38
2022-11-20T05:00:43.156Z,28.08
2022-11-20T05:03:09.775Z,28.85
2022-11-20T05:05:36.384Z,28.65
2022-11-20T05:08:05.656Z,28.33
2022-11-20T05:10:32.242Z,26.65
2022-11-20T05:12:58.840Z,29.98
2022-11-20T05:15:25.679Z,27.30
2022-11-20T05:17:52.981Z,27.48
2022-11-20T05:20:19.805Z,29.05
2022-11-20T05:22:46.502Z,28.40
2022-11-20T05:25:13.164Z,29.70
2022-11-20T05:27:39.806Z,30.23
2022-11-20T05:30:06.967Z,33.42
2022-11-20T05:32:33.581Z,29.85
2022-11-20T05:35:00.222Z,29.70
2022-11-20T05:37:26.812Z,28.38
2022-11-20T05:39:53.377Z,33.00
2022-11-20T05:42:31.794Z,30.15
2022-11-20T05:45:03.273Z,35.40
2022-11-20T05:47:33.971Z,33.63
2022-11-20T05:50:00.584Z,30.83
2022-11-20T05:52:30.267Z,29.63
2022-11-20T05:54:58.031Z,30.05
2022-11-20T05:57:24.648Z,31.42
2022-11-20T05:59:51.253Z,29.65
2022-11-20T06:02:17.902Z,30.00
2022-11-20T06:04:44.514Z,31.05
2022-11-20T06:07:11.356Z,29.55
2022-11-20T06:09:38.038Z,30.55
2022-11-20T06:12:04.998Z,30.35
2022-11-20T06:14:31.583Z,27.80
2022-11-20T06:16:58.230Z,30.08
2022-11-20T06:19:24.889Z,30.08
2022-11-20T06:21:51.548Z,31.75
2022-11-20T06:24:18.189Z,34.45
2022-11-20T06:26:45.038Z,31.70
2022-11-20T06:29:11.708Z,32.20
2022-11-20T06:31:38.613Z,32.53
2022-11-20T06:34:06.974Z,31.83
2022-11-20T06:36:33.764Z,30.40
2022-11-20T06:39:00.865Z,33.55
2022-11-20T06:41:28.841Z,31.55
2022-11-20T06:43:55.621Z,33.65
2022-11-20T06:46:22.420Z,33.83
2022-11-20T06:48:49.640Z,32.25
2022-11-20T06:51:16.305Z,36.53
2022-11-20T06:53:42.983Z,35.75
2022-11-20T06:56:09.726Z,34.53
2022-11-20T06:58:36.834Z,36.83
2022-11-20T07:01:08.185Z,34.03
2022-11-20T07:03:34.920Z,33.78
2022-11-20T07:06:01.781Z,38.22
2022-11-20T07:08:28.439Z,36.47
2022-11-20T07:10:58.509Z,34.65
2022-11-20T07:13:25.139Z,30.63
2022-11-20T07:15:51.794Z,34.45
2022-11-20T07:18:18.371Z,37.55
2022-11-20T07:20:45.054Z,35.42
2022-11-20T07:23:11.668Z,37.65
2022-11-20T07:25:38.316Z,36.15
2022-11-20T07:28:05.034Z,36.30
2022-11-20T07:30:31.649Z,36.72
2022-11-20T07:32:58.380Z,33.38
2022-11-20T07:35:25.546Z,34.25
2022-11-20T07:37:52.209Z,30.80
2022-11-20T07:40:18.874Z,33.88
2022-11-20T07:42:57.802Z,36.63
2022-11-20T07:45:24.753Z,33.45
2022-11-20T07:47:51.712Z,41.58
2022-11-20T07:50:18.663Z,39.28
2022-11-20T07:52:45.296Z,34.65
2022-11-20T07:55:12.099Z,36.13
2022-11-20T07:57:38.728Z,38.72
2022-11-20T08:00:06.258Z,35.55
2022-11-20T08:02:32.836Z,38.78
2022-11-20T08:04:59.657Z,37.42
2022-11-20T08:07:26.325Z,39.10
2022-11-20T08:09:52.948Z,38.75
2022-11-20T08:12:38.989Z,40.65
2022-11-20T08:15:12.527Z,42.10
2022-11-20T08:17:39.707Z,39.78
2022-11-20T08:20:06.586Z,39.97
2022-11-20T08:22:33.317Z,50.17
2022-11-20T08:24:59.908Z,41.92
2022-11-20T08:27:26.512Z,44.92
2022-11-20T08:29:53.138Z,44.83
2022-11-20T08:32:19.715Z,44.00
2022-11-20T08:34:47.234Z,45.90
2022-11-20T08:37:13.808Z,46.30
2022-11-20T08:39:40.679Z,39.75
2022-11-20T08:42:10.952Z,42.55
2022-11-20T08:44:37.536Z,43.58
2022-11-20T08:47:04.107Z,41.95
2022-11-20T08:49:30.703Z,42.67
2022-11-20T08:51:58.085Z,43.08
2022-11-20T08:54:24.699Z,41.17
2022-11-20T08:56:51.297Z,43.00
2022-11-20T08:59:36.794Z,42.83
2022-11-20T09:02:04.440Z,40.47
2022-11-20T09:04:31.057Z,41.20
2022-11-20T09:06:57.746Z,39.92
2022-11-20T09:09:24.658Z,40.63
2022-11-20T09:11:51.520Z,40.65
2022-11-20T09:14:18.113Z,43.80
2022-11-20T09:16:46.683Z,40.85
2022-11-20T09:19:34.672Z,40.42
2022-11-20T09:22:00.940Z,43.97
2022-11-20T09:24:28.125Z,45.30
2022-11-20T09:26:54.797Z,42.13
2022-11-20T09:29:21.733Z,46.72
2022-11-20T09:31:48.561Z,54.15
2022-11-20T09:34:15.215Z,45.42
2022-11-20T09:36:41.827Z,40.30
2022-11-20T09:39:08.394Z,48.33
2022-11-20T09:41:57.259Z,41.03
2022-11-20T09:44:53.126Z,40.70
2022-11-20T09:48:07.564Z,41.47
2022-11-20T09:51:00.448Z,45.70
2022-11-20T09:53:45.316Z,48.67
2022-11-20T09:56:11.894Z,45.83
2022-11-20T09:58:43.682Z,49.42
2022-11-20T10:01:17.794Z,55.28
2022-11-20T10:04:11.267Z,57.15
2022-11-20T10:06:59.692Z,56.70
2022-11-20T10:09:37.900Z,56.97
2022-11-20T10:12:24.537Z,54.67
2022-11-20T10:14:57.351Z,56.58
2022-11-20T10:17:51.817Z,54.35
2022-11-20T10:20:55.540Z,56.55
2022-11-20T10:24:00.516Z,49.83
2022-11-20T10:26:48.937Z,53.17
2022-11-20T10:29:19.838Z,50.15
2022-11-20T10:31:58.096Z,60.83
2022-11-20T10:34:30.338Z,55.90
2022-11-20T10:37:17.489Z,57.22
2022-11-20T10:40:02.812Z,55.88
2022-11-20T10:42:52.085Z,54.10
2022-11-20T10:45:41.327Z,50.80
2022-11-20T10:48:08.246Z,47.33
2022-11-20T10:50:39.587Z,49.88
2022-11-20T10:53:08.612Z,53.45
2022-11-20T10:55:46.186Z,51.55
2022-11-20T10:58:35.322Z,54.05
2022-11-20T11:01:06.372Z,46.95
2022-11-20T11:03:33.098Z,50.33
2022-11-20T11:06:10.009Z,46.60
2022-11-20T11:08:38.906Z,43.40
2022-11-20T11:11:28.478Z,47.10
2022-11-20T11:14:08.702Z,46.55
2022-11-20T11:16:35.322Z,40.80
2022-11-20T11:19:15.113Z,40.20
2022-11-20T11:22:00.300Z,37.23
2022-11-20T11:24:44.178Z,39.83
2022-11-20T11:27:18.039Z,38.35
2022-11-20T11:29:45.354Z,38.83
2022-11-20T11:32:22.674Z,42.85
2022-11-20T11:35:05.985Z,40.22
2022-11-20T11:37:36.969Z,38.45
2022-11-20T11:40:23.371Z,44.30
2022-11-20T11:42:57.599Z,43.97
2022-11-20T11:45:24.268Z,45.10
2022-11-20T11:47:52.405Z,49.45
2022-11-20T11:50:19.342Z,44.33
2022-11-20T11:52:48.297Z,50.17
2022-11-20T11:55:39.040Z,40.00
2022-11-20T11:58:27.026Z,42.95
2022-11-20T12:01:23.002Z,44.83
2022-11-20T12:04:09.090Z,54.35
2022-11-20T12:06:35.823Z,39.75
2022-11-20T12:09:04.670Z,45.30
2022-11-20T12:11:46.521Z,43.95
2022-11-20T12:14:24.908Z,45.42
2022-11-20T12:16:51.741Z,45.42
2022-11-20T12:19:18.333Z,40.97
2022-11-20T12:21:58.494Z,40.40
2022-11-20T12:24:48.527Z,42.83
2022-11-20T12:27:24.007Z,43.97
2022-11-20T12:30:09.743Z,43.60
2022-11-20T12:32:58.010Z,42.72
2022-11-20T12:36:06.200Z,38.92
2022-11-20T12:38:51.512Z,39.30
2022-11-20T12:41:42.773Z,40.83
2022-11-20T12:44:55.114Z,43.25
2022-11-20T12:47:27.549Z,41.63
2022-11-20T12:50:02.104Z,42.88
2022-11-20T12:52:40.268Z,44.65
2022-11-20T12:55:22.512Z,40.53
2022-11-20T12:58:02.532Z,47.70
2022-11-20T13:00:29.235Z,39.63
2022-11-20T13:03:01.823Z,43.30
2022-11-20T13:05:56.200Z,44.65
2022-11-20T13:08:28.752Z,41.38
2022-11-20T13:11:08.309Z,41.13
2022-11-20T13:13:49.565Z,44.97
2022-11-20T13:16:26.012Z,38.67
2022-11-20T13:18:52.613Z,39.17
2022-11-20T13:21:23.804Z,40.13
2022-11-20T13:23:50.575Z,37.50
2022-11-20T13:26:21.858Z,37.38
2022-11-20T13:28:49.592Z,37.15
2022-11-20T13:31:32.388Z,41.70
2022-11-20T13:33:59.028Z,44.03
2022-11-20T13:36:27.601Z,47.55
2022-11-20T13:38:55.295Z,48.25
2022-11-20T13:41:29.696Z,57.70
2022-11-20T13:44:33.801Z,40.50
2022-11-20T13:47:00.448Z,39.90
2022-11-20T13:49:31.129Z,41.92
2022-11-20T13:52:24.512Z,43.30
2022-11-20T13:55:03.022Z,36.13
2022-11-20T13:57:35.546Z,35.70
2022-11-20T14:00:18.252Z,40.65
2022-11-20T14:02:45.706Z,37.60
2022-11-20T14:05:21.909Z,38.33
2022-11-20T14:07:48.784Z,37.95
2022-11-20T14:10:31.976Z,39.58
2022-11-20T14:12:59.553Z,47.33
2022-11-20T14:15:32.873Z,42.00
2022-11-20T14:18:00.098Z,43.35
2022-11-20T14:20:32.105Z,43.85
2022-11-20T14:22:58.731Z,46.35
2022-11-20T14:25:28.186Z,50.72
2022-11-20T14:27:56.269Z,49.08
2022-11-20T14:30:30.238Z,53.60
2022-11-20T14:32:58.453Z,55.05
2022-11-20T14:35:29.981Z,54.40
2022-11-20T14:37:56.754Z,58.22
2022-11-20T14:40:23.738Z,58.92
2022-11-20T14:42:50.508Z,58.28
2022-11-20T14:45:17.208Z,59.40
2022-11-20T14:47:43.981Z,65.78
2022-11-20T14:50:28.272Z,60.92
2022-11-20T14:52:59.677Z,57.13
2022-11-20T14:55:31.615Z,60.72
2022-11-20T14:58:02.847Z,57.95
2022-11-20T15:00:30.307Z,60.33
2022-11-20T15:02:56.975Z,60.88
2022-11-20T15:05:45.642Z,63.67
2022-11-20T15:08:16.498Z,61.60
2022-11-20T15:10:50.051Z,62.95
2022-11-20T15:13:33.453Z,56.70
2022-11-20T15:16:01.472Z,56.75
2022-11-20T15:18:33.345Z,60.47
2022-11-20T15:21:02.588Z,58.45
2022-11-20T15:23:29.632Z,68.30
2022-11-20T15:25:56.323Z,64.00
2022-11-20T15:28:29.498Z,67.05
2022-11-20T15:30:57.324Z,60.15
2022-11-20T15:33:23.937Z,64.20
2022-11-20T15:35:50.599Z,64.00
2022-11-20T15:38:17.334Z,65.47
2022-11-20T15:40:44.038Z,58.97
2022-11-20T15:43:13.558Z,61.20
2022-11-20T15:45:49.628Z,59.90
2022-11-20T15:48:17.409Z,54.97
2022-11-20T15:51:00.708Z,53.78
2022-11-20T15:53:27.470Z,59.85
2022-11-20T15:55:54.198Z,61.47
2022-11-20T15:58:20.942Z,57.80
2022-11-20T16:00:47.584Z,64.65
2022-11-20T16:03:15.110Z,63.38
2022-11-20T16:05:41.794Z,61.28
2022-11-20T16:08:11.573Z,64.45
2022-11-20T16:10:38.760Z,64.80
2022-11-20T16:13:24.186Z,65.32
2022-11-20T16:15:56.155Z,66.72
2022-11-20T16:18:22.979Z,68.75
2022-11-20T16:20:54.597Z,64.18
2022-11-20T16:23:21.738Z,69.78
2022-11-20T16:25:48.465Z,63.97
2022-11-20T16:28:18.800Z,68.30
2022-11-20T16:30:46.020Z,70.43
2022-11-20T16:33:15.986Z,72.93
2022-11-20T16:35:42.690Z,69.18
2022-11-20T16:38:09.499Z,78.75
2022-11-20T16:40:36.271Z,76.57
2022-11-20T16:43:08.802Z,81.22
2022-11-20T16:45:35.512Z,79.32
2022-11-20T16:48:02.195Z,79.05
2022-11-20T16:50:28.820Z,95.35
2022-11-20T16:52:55.968Z,92.10
2022-11-20T16:55:22.620Z,81.10
2022-11-20T16:57:49.277Z,85.45
2022-11-20T17:00:16.283Z,89.05
2022-11-20T17:02:42.934Z,78.10
2022-11-20T17:05:09.647Z,81.15
2022-11-20T17:07:37.818Z,81.40
2022-11-20T17:10:04.822Z,82.82
2022-11-20T17:12:31.456Z,88.00
2022-11-20T17:14:58.096Z,93.40
2022-11-20T17:17:24.752Z,97.63
2022-11-20T17:19:51.482Z,92.85
2022-11-20T17:22:18.097Z,106.57
2022-11-20T17:24:44.698Z,98.90
2022-11-20T17:27:11.513Z,105.90
2022-11-20T17:29:42.059Z,106.10
2022-11-20T17:32:09.072Z,95.10
2022-11-20T17:34:35.687Z,92.30
2022-11-20T17:37:02.374Z,88.35
2022-11-20T17:39:29.012Z,104.03
2022-11-20T17:42:14.306Z,98.50
2022-11-20T17:44:42.622Z,87.05
2022-11-20T17:47:09.296Z,91.38
2022-11-20T17:49:35.880Z,93.00
2022-11-20T17:52:02.524Z,90.82
2022-11-20T17:54:29.269Z,92.32
2022-11-20T17:57:14.552Z,95.70
2022-11-20T17:59:41.200Z,89.65
2022-11-20T18:02:08.740Z,82.93
2022-11-20T18:04:35.431Z,89.43
2022-11-20T18:07:02.083Z,87.10
2022-11-20T18:09:28.786Z,89.20
2022-11-20T18:11:55.391Z,83.55
2022-11-20T18:14:36.297Z,79.63
2022-11-20T18:17:07.786Z,86.45
2022-11-20T18:19:40.256Z,92.15
2022-11-20T18:22:12.390Z,81.18
2022-11-20T18:24:39.541Z,77.75
2022-11-20T18:27:07.287Z,73.20
2022-11-20T18:29:34.006Z,69.35
2022-11-20T18:32:01.186Z,72.40
2022-11-20T18:34:27.939Z,69.25
2022-11-20T18:36:54.622Z,68.78
2022-11-20T18:39:21.771Z,62.45
2022-11-20T18:42:07.089Z,62.53
2022-11-20T18:44:52.086Z,62.58
2022-11-20T18:47:30.462Z,66.10
2022-11-20T18:49:58.817Z,60.47
2022-11-20T18:52:38.593Z,63.40
2022-11-20T18:55:06.010Z,53.10
2022-11-20T18:57:32.895Z,54.95
2022-11-20T19:00:03.546Z,58.38
2022-11-20T19:02:36.676Z,57.08
2022-11-20T19:05:07.627Z,56.78
2022-11-20T19:07:34.354Z,54.97
2022-11-20T19:10:03.709Z,52.42
2022-11-20T19:12:31.021Z,53.08
2022-11-20T19:14:57.936Z,54.08
2022-11-20T19:17:24.652Z,58.33
2022-11-20T19:19:52.090Z,50.50
2022-11-20T19:22:18.728Z,51.50
2022-11-20T19:24:45.903Z,49.75
2022-11-20T19:27:12.571Z,49.67
2022-11-20T19:29:39.383Z,52.78
2022-11-20T19:32:06.162Z,50.92
2022-11-20T19:34:32.789Z,44.25
2022-11-20T19:37:00.763Z,47.40
2022-11-20T19:39:27.511Z,46.63
2022-11-20T19:41:54.326Z,46.80
2022-11-20T19:44:21.047Z,48.85
2022-11-20T19:46:47.785Z,47.50
2022-11-20T19:49:14.595Z,44.83
2022-11-20T19:51:45.777Z,41.50
2022-11-20T19:54:12.477Z,41.67
2022-11-20T19:56:39.180Z,43.72
2022-11-20T19:59:05.965Z,36.47
2022-11-20T20:01:32.709Z,36.25
2022-11-20T20:04:05.006Z,35.83
2022-11-20T20:06:32.410Z,33.08
2022-11-20T20:09:09.337Z,28.77
2022-11-20T20:11:36.168Z,28.80
2022-11-20T20:14:10.753Z,24.08
2022-11-20T20:16:37.432Z,25.67
2022-11-20T20:19:04.613Z,24.52
2022-11-20T20:21:31.993Z,22.67
2022-11-20T20:23:58.824Z,19.00
2022-11-20T20:26:26.274Z,22.33
2022-11-20T20:28:52.957Z,19.90
2022-11-20T20:31:21.184Z,25.65
2022-11-20T20:33:47.928Z,22.40
2022-11-20T20:36:15.855Z,24.63
2022-11-20T20:38:43.233Z,19.92
2022-11-20T20:41:10.044Z,23.10
2022-11-20T20:43:57.082Z,19.98
2022-11-20T20:46:24.050Z,19.00
2022-11-20T20:48:54.369Z,21.75
2022-11-20T20:51:21.864Z,18.10
2022-11-20T20:53:48.591Z,18.60
2022-11-20T20:56:15.327Z,20.33
2022-11-20T20:58:42.065Z,13.48
2022-11-20T21:01:13.288Z,13.25
2022-11-20T21:03:40.086Z,11.60
2022-11-20T21:06:07.387Z,11.80
2022-11-20T21:08:34.785Z,11.25
2022-11-20T21:11:04.949Z,10.63
2022-11-20T21:13:31.828Z,7.75
2022-11-20T21:15:58.518Z,7.63
2022-11-20T21:18:25.546Z,6.82
2022-11-20T21:21:10.650Z,8.32
2022-11-20T21:23:37.449Z,38.20
2022-11-20T21:26:08.549Z,6.10
2022-11-20T21:28:35.729Z,7.25
2022-11-20T21:31:10.069Z,10.57
2022-11-20T21:33:44.306Z,5.40
2022-11-20T21:36:12.471Z,9.90
2022-11-20T21:38:39.267Z,6.72
2022-11-20T21:41:06.962Z,7.28
2022-11-20T21:43:33.738Z,8.02
2022-11-20T21:46:18.617Z,10.25
2022-11-20T21:48:45.873Z,8.27
2022-11-20T21:51:19.775Z,6.70
2022-11-20T21:53:46.932Z,5.30
2022-11-20T21:56:17.705Z,9.10
2022-11-20T21:58:46.897Z,9.43
2022-11-20T22:01:27.305Z,18.05
2022-11-20T22:03:57.157Z,6.05
2022-11-20T22:06:29.702Z,10.48
2022-11-20T22:08:56.322Z,7.22
2022-11-20T22:11:23.018Z,8.60
2022-11-20T22:14:08.097Z,7.15
2022-11-20T22:16:35.848Z,5.60
2022-11-20T22:19:02.503Z,6.00
2022-11-20T22:21:30.071Z,7.30
2022-11-20T22:23:56.946Z,9.20
2022-11-20T22:26:25.253Z,6.00
2022-11-20T22:28:53.498Z,13.07
2022-11-20T22:31:21.111Z,9.13
2022-11-20T22:33:47.822Z,7.55
2022-11-20T22:36:18.309Z,7.70
2022-11-20T22:38:44.987Z,10.32
2022-11-20T22:41:22.193Z,10.55
2022-11-20T22:43:48.886Z,8.13
2022-11-20T22:46:19.238Z,7.85
2022-11-20T22:48:50.760Z,6.72
2022-11-20T22:51:17.933Z,10.93
2022-11-20T22:53:44.616Z,9.82
2022-11-20T22:56:14.937Z,12.20
2022-11-20T22:58:43.191Z,10.55
2022-11-20T23:01:26.614Z,11.05
2022-11-20T23:03:55.931Z,13.55
2022-11-20T23:06:22.739Z,8.93
2022-11-20T23:08:50.044Z,8.60
2022-11-20T23:11:21.434Z,13.68
2022-11-20T23:13:48.184Z,13.15
2022-11-20T23:16:16.408Z,16.75
2022-11-20T23:18:43.351Z,15.93
2022-11-20T23:21:10.811Z,11.80
2022-11-20T23:23:37.684Z,10.13
2022-11-20T23:26:08.961Z,9.07
2022-11-20T23:28:35.910Z,11.50
2022-11-20T23:31:03.628Z,4.90
2022-11-20T23:33:30.376Z,13.43
2022-11-20T23:35:57.046Z,7.57
2022-11-20T23:38:23.774Z,8.15
2022-11-20T23:40:51.016Z,10.68
2022-11-20T23:43:18.194Z,8.57
2022-11-20T23:45:46.299Z,14.80
2022-11-20T23:48:12.979Z,7.00
2022-11-20T23:50:39.773Z,7.97
2022-11-20T23:53:06.475Z,8.05
2022-11-20T23:55:33.455Z,8.65
2022-11-20T23:58:00.194Z,8.43
